• Join FlightAware (Why Join?)
  • Login
  • US Flag 
06:39AM EDT


 

Airport Tracker/Info


-or-


 

Live Flight TrackerFlight Track Log ✈ SKW6526 ✈ 27-Apr-2013 ✈ KLAX - KRNO

Flight Track Log - Related Links

Times and Time Zones

All times are in EDT time to prevent confusion due to time zone crossing. See the SKW6526 flight status page for this flight to view local times or setup timezone preferences in your user account.

Time Position Orientation Groundspeed Altitude Reporting Facility
EDT Latitude Longitude Course Direction KTS MPH feet Rate Location/Type
04:21PM 33.9444 -118.4608 268° West 168 193 2,400  Level Los Angeles Center
04:22PM 33.9425 -118.5261 268° West 195 224 4,400 1,920 Climbing Los Angeles Center
04:23PM 33.9683 -118.6075 291° West 260 299 6,400 1,980 Climbing Los Angeles Center
04:24PM 34.0408 -118.6375 341° North 277 319 8,600 2,280 Climbing Los Angeles Center
04:25PM 34.1211 -118.6519 352° North 285 328 11,200 2,400 Climbing Los Angeles Center
04:26PM 34.2003 -118.6497 North 296 341 13,600 2,160 Climbing Los Angeles Center
04:27PM 34.2819 -118.6675 350° North 300 345 15,700 1,680 Climbing Los Angeles Center
04:28PM 34.3669 -118.6878 349° North 314 361 17,100 1,380 Climbing Los Angeles Center
04:29PM 34.4575 -118.7072 350° North 329 379 18,600 1,380 Climbing Los Angeles Center
04:30PM 34.5475 -118.7328 347° North 334 384 20,000 1,320 Climbing Los Angeles Center
04:31PM 34.6558 -118.7892 337° Northwest 354 407 21,400 1,260 Climbing Los Angeles Center
04:32PM 34.7478 -118.8331 339° North 356 410 22,700 1,200 Climbing Los Angeles Center
04:33PM 34.8431 -118.8756 340° North 363 418 23,900 1,140 Climbing Los Angeles Center
04:34PM 34.9533 -118.9028 349° North 358 412 25,100 1,020 Climbing Los Angeles Center
04:35PM 35.0561 -118.9183 353° North 369 425 26,100 840 Climbing Los Angeles Center
04:36PM 35.1589 -118.9347 353° North 373 429 26,900 720 Climbing Los Angeles Center
04:37PM 35.2656 -118.9514 353° North 384 442 27,700 660 Climbing Los Angeles Center
04:38PM 35.3711 -118.9669 353° North 384 442 28,300 540 Climbing Los Angeles Center
04:39PM 35.4817 -118.9836 353° North 392 451 28,900 600 Climbing Los Angeles Center
04:41PM 35.6156 -119.0050 353° North 401 461 29,600 600 Climbing Los Angeles Center
04:41PM 35.7286 -119.0219 353° North 411 473 30,200 600 Climbing Oakland Center
04:43PM 35.8417 -119.0406 352° North 411 473 30,900 600 Climbing Oakland Center
04:44PM 35.9553 -119.0581 353° North 413 475 31,500 540 Climbing Oakland Center
04:45PM 36.0678 -119.0767 352° North 411 473 32,000 240 Climbing Oakland Center
04:46PM 36.1811 -119.0947 353° North 411 473 32,000  Level Oakland Center
04:47PM 36.2936 -119.1122 353° North 410 472 32,000  Level Oakland Center
04:48PM 36.4061 -119.1300 353° North 407 468 32,000  Level Oakland Center
04:49PM 36.5175 -119.1475 353° North 402 463 32,000  Level Oakland Center
04:50PM 36.6275 -119.1669 352° North 401 461 32,000  Level Oakland Center
04:51PM 36.7603 -119.1889 352° North 402 463 32,000  Level Oakland Center
04:52PM 36.8706 -119.2067 353° North 405 466 32,000  Level Oakland Center
04:53PM 36.9808 -119.2267 352° North 404 465 32,000  Level Oakland Center
04:54PM 37.0903 -119.2453 352° North 412 474 32,000  Level Oakland Center
04:55PM 37.2014 -119.2633 353° North 407 468 32,000  Level Oakland Center
04:56PM 37.3064 -119.2714 357° North 385 443 32,000  Level Oakland Center
04:57PM 37.4231 -119.3008 349° North 413 475 32,000  Level Oakland Center
04:58PM 37.5344 -119.3208 352° North 405 466 32,000 -300 Level Oakland Center
04:59PM 37.6547 -119.3339 355° North 401 461 31,400 -660 Descending Oakland Center
05:00PM 37.7653 -119.3522 353° North 403 464 30,700 -720 Descending Oakland Center
05:01PM 37.8769 -119.3725 352° North 404 465 30,000 -720 Descending Oakland Center
05:02PM 37.9878 -119.3900 353° North 403 464 29,300 -720 Descending Oakland Center
05:03PM 38.0989 -119.4089 352° North 403 464 28,600 -780 Descending Oakland Center
05:04PM 38.2297 -119.4303 353° North 405 466 27,800 -840 Descending Oakland Center
05:05PM 38.3411 -119.4492 352° North 403 464 27,000 -840 Descending Oakland Center
05:06PM 38.4542 -119.4672 353° North 406 467 26,200 -840 Descending Oakland Center
05:07PM 38.5672 -119.4867 352° North 409 471 25,400 -840 Descending Oakland Center
05:08PM 38.6761 -119.5053 352° North 399 459 24,600 -900 Descending Oakland Center
05:09PM 38.7739 -119.5233 352° North 367 422 23,600 -1,500 Descending Oakland Center
05:10PM 38.8653 -119.5367 354° North 339 390 21,600 -1,980 Descending Oakland Center
05:11PM 38.9583 -119.5539 352° North 335 386 19,600 -1,860 Descending Oakland Center
05:12PM 39.0519 -119.5714 352° North 337 388 17,800 -2,100 Descending Oakland Center
05:13PM 39.1575 -119.5892 353° North 325 374 15,400 -2,220 Descending Oakland Center
05:14PM 39.2414 -119.6031 353° North 312 359 13,400 -1,860 Descending Oakland Center
05:15PM 39.3233 -119.6178 352° North 304 350 11,600 -1,620 Descending Oakland Center
05:16PM 39.4031 -119.6328 352° North 297 342 10,100 -1,200 Descending Oakland Center
05:17PM 39.4772 -119.6450 353° North 286 329 9,200 -840 Descending Oakland Center
05:18PM 39.5511 -119.6575 353° North 274 315 8,500 -1,020 Descending Oakland Center
05:19PM 39.5667 -119.7333 285° West 212 244 7,000 -1,440 Descending Northern Cal TRACON
05:20PM 39.5500 -119.7667 237° Southwest 169 194 5,400 -1,620 Descending Northern Cal TRACON
05:22PM 39.4991 -119.7681 247° West  Level Estimated
05:29PM 39.4991 -119.7681 247° West  Level Estimated
05:30PM 39.4991 -119.7681 247° West  Level Estimated